Time;durP1;ratioP1;P1;durP2;ratioP2;P2;SDS_P1;SDS_P2;PMS_P1;PMS_P2;Temp;Humidity;BMP_temperature;BMP_pressure;BME280_temperature;BME280_humidity;BME280_pressure;Samples;Min_cycle;Max_cycle;Signal;HPM_P1;HPM_P2
2020/12/06 00:04:29;;;;;;;6.50;2.95;;;14.60;65.90;;;;;;10454793;28;20057;-57
2020/12/06 00:09:30;;;;;;;8.15;2.50;;;14.50;65.80;;;;;;10456595;28;20028;-58
2020/12/06 00:14:31;;;;;;;5.07;3.28;;;14.50;65.60;;;;;;10457380;28;20032;-58
2020/12/06 00:19:32;;;;;;;4.63;3.50;;;14.50;65.60;;;;;;10456900;28;20167;-57
2020/12/06 00:24:33;;;;;;;4.25;2.90;;;14.50;65.70;;;;;;10456613;28;20108;-57
2020/12/06 00:29:33;;;;;;;5.15;3.58;;;14.50;65.60;;;;;;10455429;28;20369;-57
2020/12/06 00:34:34;;;;;;;3.88;2.92;;;14.50;65.60;;;;;;10456208;28;20040;-57
2020/12/06 00:39:35;;;;;;;4.53;3.30;;;14.40;65.60;;;;;;10455386;28;20112;-57
2020/12/06 00:44:36;;;;;;;4.38;2.88;;;14.40;65.50;;;;;;10460827;28;20455;-57
2020/12/06 00:49:37;;;;;;;4.43;3.20;;;14.40;65.50;;;;;;10454374;28;20393;-56
2020/12/06 00:54:37;;;;;;;4.78;3.38;;;14.40;65.50;;;;;;10455507;28;20099;-57
2020/12/06 00:59:38;;;;;;;4.20;3.05;;;14.40;65.50;;;;;;10453488;28;20155;-57
2020/12/06 01:04:39;;;;;;;4.18;2.92;;;14.30;65.30;;;;;;10453830;28;20425;-57
2020/12/06 01:09:39;;;;;;;6.78;3.20;;;14.30;65.40;;;;;;10455178;28;20559;-57
2020/12/06 01:14:40;;;;;;;4.60;3.35;;;14.30;65.30;;;;;;10455345;28;20025;-57
2020/12/06 01:19:41;;;;;;;4.80;2.90;;;14.30;65.30;;;;;;10455241;28;20516;-57
2020/12/06 01:24:42;;;;;;;5.03;3.28;;;14.30;65.30;;;;;;10442933;28;20111;-57
2020/12/06 01:29:43;;;;;;;4.53;3.13;;;14.30;65.20;;;;;;10449807;28;20029;-58
2020/12/06 01:34:43;;;;;;;4.80;3.25;;;14.30;65.20;;;;;;10454754;28;20036;-57
2020/12/06 01:39:44;;;;;;;4.80;3.15;;;14.20;65.20;;;;;;10454471;28;20101;-57
2020/12/06 01:44:45;;;;;;;4.57;3.13;;;14.30;65.30;;;;;;10460177;28;20086;-57
2020/12/06 01:49:46;;;;;;;4.55;3.35;;;14.20;65.20;;;;;;10454906;28;20053;-57
2020/12/06 01:54:48;;;;;;;5.82;3.65;;;14.20;65.20;;;;;;10459710;28;20032;-57
2020/12/06 01:59:49;;;;;;;4.55;3.25;;;14.20;65.20;;;;;;10458645;28;20366;-57
2020/12/06 02:04:53;;;;;;;3.83;2.85;;;14.20;65.20;;;;;;10462631;28;20029;-57
2020/12/06 02:09:53;;;;;;;4.07;3.00;;;14.20;65.20;;;;;;10461849;28;20036;-57
2020/12/06 02:14:54;;;;;;;4.07;2.75;;;14.10;65.10;;;;;;10460858;28;20025;-57
2020/12/06 02:19:55;;;;;;;4.85;3.45;;;14.10;65.10;;;;;;10477410;28;20438;-57
2020/12/06 02:24:56;;;;;;;5.43;3.42;;;14.10;65.10;;;;;;10461693;28;20404;-57
2020/12/06 02:29:57;;;;;;;3.95;2.90;;;14.10;65.10;;;;;;10454273;28;20028;-57
2020/12/06 02:34:58;;;;;;;4.30;3.13;;;14.10;65.10;;;;;;10461129;28;20037;-58
2020/12/06 02:39:59;;;;;;;4.07;2.90;;;14.10;65.10;;;;;;10461787;28;20051;-57
2020/12/06 02:44:59;;;;;;;4.47;3.40;;;14.10;65.10;;;;;;10464695;28;20033;-57
2020/12/06 02:50:00;;;;;;;4.30;3.22;;;14.10;65.00;;;;;;10460826;28;20021;-57
2020/12/06 02:55:01;;;;;;;4.30;2.72;;;14.10;65.00;;;;;;10456786;28;20033;-58
2020/12/06 03:00:03;;;;;;;3.90;2.88;;;14.00;65.00;;;;;;10458641;28;20080;-57
2020/12/06 03:05:04;;;;;;;4.65;2.83;;;14.00;65.00;;;;;;10469388;28;20040;-57
2020/12/06 03:10:06;;;;;;;3.80;2.95;;;14.00;65.00;;;;;;10485852;28;20426;-58
2020/12/06 03:15:07;;;;;;;5.80;2.92;;;14.00;65.00;;;;;;10460735;28;20033;-57
2020/12/06 03:20:08;;;;;;;6.45;3.10;;;13.90;65.00;;;;;;10482629;28;20504;-57
2020/12/06 03:25:08;;;;;;;4.05;3.08;;;14.00;65.10;;;;;;10490122;28;20459;-58
2020/12/06 03:30:09;;;;;;;4.28;2.85;;;13.90;65.00;;;;;;10470203;28;20441;-57
2020/12/06 03:35:10;;;;;;;3.55;3.00;;;13.90;65.00;;;;;;10481309;28;20378;-57
2020/12/06 03:40:10;;;;;;;3.70;2.75;;;13.90;65.00;;;;;;10468161;28;20045;-58
2020/12/06 03:45:11;;;;;;;3.70;2.85;;;13.90;65.10;;;;;;10464165;28;20040;-57
2020/12/06 03:50:12;;;;;;;3.55;2.95;;;13.90;65.00;;;;;;10479870;28;20068;-57
2020/12/06 03:55:12;;;;;;;4.25;3.13;;;13.90;65.00;;;;;;10489056;28;20029;-57
2020/12/06 04:00:13;;;;;;;4.45;3.05;;;13.90;65.10;;;;;;10470282;28;20115;-57
2020/12/06 04:05:19;;;;;;;3.70;3.03;;;13.90;65.00;;;;;;10474860;28;20021;-57
2020/12/06 04:10:20;;;;;;;5.00;3.53;;;13.90;65.00;;;;;;10466084;28;20040;-57
2020/12/06 04:15:21;;;;;;;3.78;2.85;;;13.80;65.00;;;;;;10460015;28;20055;-57
2020/12/06 04:20:21;;;;;;;3.28;2.83;;;13.80;65.00;;;;;;10485942;28;20033;-57
2020/12/06 04:25:22;;;;;;;3.70;2.83;;;13.80;65.00;;;;;;10490200;28;20021;-57
2020/12/06 04:30:23;;;;;;;4.15;2.78;;;13.80;65.00;;;;;;10475843;28;20051;-57
2020/12/06 04:35:24;;;;;;;3.70;3.30;;;13.80;65.00;;;;;;10478115;28;20101;-58
2020/12/06 04:40:25;;;;;;;4.68;3.35;;;13.80;65.00;;;;;;10489354;28;20040;-57
2020/12/06 04:45:25;;;;;;;4.53;3.10;;;13.80;65.10;;;;;;10461110;28;20029;-57
2020/12/06 04:50:42;;;;;;;4.15;3.10;;;13.70;65.00;;;;;;10457701;28;20036;-56
2020/12/06 04:55:46;;;;;;;3.55;2.97;;;13.70;65.00;;;;;;10495953;28;20103;-58
2020/12/06 05:00:51;;;;;;;4.18;3.17;;;13.70;65.00;;;;;;10468931;28;20033;-57
2020/12/06 05:05:54;;;;;;;4.10;2.72;;;13.70;65.10;;;;;;10474893;28;20538;-57
2020/12/06 05:10:55;;;;;;;3.75;2.65;;;13.70;65.10;;;;;;10467153;28;20035;-57
2020/12/06 05:15:56;;;;;;;4.00;2.75;;;13.70;65.10;;;;;;10456649;28;20120;-57
2020/12/06 05:20:56;;;;;;;3.45;2.80;;;13.70;65.10;;;;;;10471611;28;20528;-56
2020/12/06 05:25:58;;;;;;;3.33;2.72;;;13.70;64.90;;;;;;10476068;28;20059;-57
2020/12/06 05:31:03;;;;;;;3.75;2.58;;;13.90;64.40;;;;;;10478898;28;20029;-57
2020/12/06 05:36:03;;;;;;;3.35;2.58;;;14.20;63.50;;;;;;10475780;28;20465;-56
2020/12/06 05:41:07;;;;;;;4.32;2.90;;;14.70;62.10;;;;;;10472399;28;20123;-57
2020/12/06 05:46:13;;;;;;;2.58;2.25;;;15.20;60.50;;;;;;10473052;28;20074;-57
2020/12/06 05:51:15;;;;;;;3.35;2.60;;;15.50;59.50;;;;;;10456222;28;20052;-56
2020/12/06 05:56:20;;;;;;;3.92;2.50;;;15.80;58.80;;;;;;10472464;28;20064;-57
2020/12/06 06:01:22;;;;;;;4.60;2.60;;;16.00;58.40;;;;;;10472563;28;20028;-57
2020/12/06 06:06:43;;;;;;;4.18;2.75;;;16.10;58.10;;;;;;10477585;28;20024;-57
2020/12/06 06:12:00;;;;;;;3.17;2.25;;;16.30;57.90;;;;;;10464362;28;20036;-58
2020/12/06 06:17:01;;;;;;;2.85;2.20;;;16.30;57.80;;;;;;10459129;28;20028;-57
2020/12/06 06:22:02;;;;;;;3.90;2.45;;;16.40;57.60;;;;;;10472892;28;20473;-57
2020/12/06 06:27:03;;;;;;;3.58;2.45;;;16.50;57.50;;;;;;10476431;28;20039;-58
2020/12/06 06:32:04;;;;;;;2.95;2.15;;;16.60;57.30;;;;;;10480038;28;20093;-57
2020/12/06 06:37:14;;;;;;;3.17;2.65;;;16.70;57.10;;;;;;10467561;28;20136;-57
2020/12/06 06:42:14;;;;;;;3.15;2.10;;;16.70;57.00;;;;;;10478452;28;20032;-57
2020/12/06 06:47:17;;;;;;;3.45;2.42;;;16.80;56.90;;;;;;10468832;28;20052;-57
2020/12/06 06:52:18;;;;;;;6.07;3.67;;;16.90;56.70;;;;;;10462271;28;20044;-56
2020/12/06 06:57:22;;;;;;;4.50;2.67;;;16.90;56.90;;;;;;10464374;28;20087;-57
2020/12/06 07:02:40;;;;;;;9.55;3.53;;;17.00;57.10;;;;;;10486372;28;20033;-58
2020/12/06 07:07:51;;;;;;;9.32;2.88;;;17.20;56.80;;;;;;10487172;28;20669;-56
2020/12/06 07:12:58;;;;;;;12.40;11.23;;;17.40;56.90;;;;;;10470431;28;20055;-55
2020/12/06 07:18:00;;;;;;;9.48;3.72;;;17.60;57.80;;;;;;10465071;28;20119;-58
2020/12/06 07:23:00;;;;;;;7.75;3.50;;;17.90;57.00;;;;;;10500841;28;20415;-57
2020/12/06 07:28:01;;;;;;;6.38;3.92;;;17.90;57.30;;;;;;10485628;28;20112;-57
2020/12/06 07:33:02;;;;;;;10.07;4.15;;;17.80;58.00;;;;;;10484546;28;20029;-57
2020/12/06 07:38:03;;;;;;;9.60;4.03;;;17.80;58.10;;;;;;10490378;28;20068;-59
2020/12/06 07:43:15;;;;;;;14.55;3.22;;;17.80;57.50;;;;;;10462737;28;20036;-60
2020/12/06 07:48:20;;;;;;;9.23;3.60;;;17.90;57.30;;;;;;10460353;28;20385;-59
2020/12/06 07:53:21;;;;;;;10.65;3.65;;;18.00;57.20;;;;;;10469972;28;20017;-57
2020/12/06 07:58:23;;;;;;;6.72;3.70;;;18.00;56.80;;;;;;10469445;28;20464;-60
2020/12/06 08:03:24;;;;;;;16.58;3.97;;;18.00;56.90;;;;;;10457147;28;20396;-56
2020/12/06 08:08:27;;;;;;;15.20;3.88;;;18.00;57.20;;;;;;10466776;28;20051;-57
2020/12/06 08:13:29;;;;;;;11.60;3.50;;;18.00;57.20;;;;;;10458567;28;20070;-57
2020/12/06 08:18:29;;;;;;;23.17;5.10;;;18.00;57.10;;;;;;10457050;28;20434;-57
2020/12/06 08:23:42;;;;;;;15.50;4.35;;;17.90;57.50;;;;;;10482755;28;20108;-57
2020/12/06 08:28:50;;;;;;;10.38;3.53;;;17.80;57.50;;;;;;10470055;28;20025;-58
2020/12/06 08:33:51;;;;;;;13.18;3.53;;;17.80;57.60;;;;;;10479311;28;20385;-58
2020/12/06 08:38:51;;;;;;;12.07;3.70;;;17.80;57.80;;;;;;10474044;28;20060;-57
2020/12/06 08:43:54;;;;;;;10.15;4.55;;;17.70;58.00;;;;;;10468629;28;20142;-58
2020/12/06 08:48:58;;;;;;;10.15;3.80;;;17.70;57.90;;;;;;10460814;28;20021;-57
2020/12/06 08:54:07;;;;;;;7.60;3.05;;;17.80;57.80;;;;;;10485055;28;20033;-58
2020/12/06 08:59:09;;;;;;;7.78;3.08;;;17.70;57.90;;;;;;10475662;28;20037;-58
2020/12/06 09:04:10;;;;;;;8.02;3.63;;;17.70;57.80;;;;;;10459393;28;20040;-57
2020/12/06 09:09:11;;;;;;;18.25;4.32;;;17.80;58.00;;;;;;10454304;28;20112;-57
2020/12/06 09:14:11;;;;;;;13.52;4.00;;;17.70;58.30;;;;;;10452730;28;20029;-57
2020/12/06 09:19:12;;;;;;;13.25;3.80;;;17.70;58.20;;;;;;10462121;28;20491;-56
2020/12/06 09:24:13;;;;;;;12.98;4.20;;;17.60;59.10;;;;;;10458902;28;20035;-57
2020/12/06 09:29:13;;;;;;;11.60;3.80;;;17.50;60.10;;;;;;10455075;28;20477;-56
2020/12/06 09:34:14;;;;;;;12.20;3.85;;;17.60;59.50;;;;;;10459651;28;20036;-56
2020/12/06 09:39:15;;;;;;;21.65;4.10;;;17.50;59.60;;;;;;10470171;28;20547;-56
2020/12/06 09:44:16;;;;;;;12.18;3.97;;;17.60;60.20;;;;;;10467671;28;20124;-56
2020/12/06 09:49:16;;;;;;;18.88;3.92;;;17.50;59.70;;;;;;10458849;28;20100;-56
2020/12/06 09:54:17;;;;;;;19.23;3.85;;;17.60;59.30;;;;;;10458200;28;20104;-55
2020/12/06 09:59:18;;;;;;;6.30;3.30;;;17.60;59.30;;;;;;10466652;28;20039;-56
2020/12/06 10:04:18;;;;;;;8.50;3.35;;;17.60;59.30;;;;;;10459402;28;20115;-56
2020/12/06 10:09:19;;;;;;;13.38;3.50;;;17.50;59.30;;;;;;10455042;28;20060;-56
2020/12/06 10:14:20;;;;;;;9.85;4.43;;;17.50;59.70;;;;;;10449426;28;20034;-56
2020/12/06 10:19:20;;;;;;;6.55;3.30;;;17.60;59.50;;;;;;10472732;28;20106;-56
2020/12/06 10:24:21;;;;;;;12.68;4.10;;;17.50;59.50;;;;;;10456460;28;20125;-56
2020/12/06 10:29:23;;;;;;;9.18;3.35;;;17.50;60.40;;;;;;10443316;28;20161;-56
2020/12/06 10:34:24;;;;;;;9.32;4.25;;;17.50;60.60;;;;;;10468085;28;20389;-57
2020/12/06 10:39:26;;;;;;;8.07;3.65;;;17.40;60.50;;;;;;10460702;28;20079;-57
2020/12/06 10:44:27;;;;;;;10.77;4.50;;;17.50;60.30;;;;;;10470701;28;20052;-56
2020/12/06 10:49:28;;;;;;;6.32;3.22;;;17.40;60.30;;;;;;10464672;28;20035;-56
2020/12/06 10:54:28;;;;;;;7.75;4.63;;;17.50;60.20;;;;;;10485594;28;20064;-56
2020/12/06 10:59:29;;;;;;;7.18;3.60;;;17.50;59.90;;;;;;10493547;28;20154;-56
2020/12/06 11:04:30;;;;;;;6.53;3.08;;;17.50;59.80;;;;;;10470634;28;20040;-56
2020/12/06 11:09:31;;;;;;;11.60;3.58;;;17.40;59.90;;;;;;10479222;28;20020;-57
2020/12/06 11:14:32;;;;;;;7.70;3.65;;;17.40;59.70;;;;;;10466274;28;20020;-57
2020/12/06 11:19:32;;;;;;;7.65;3.20;;;17.40;59.80;;;;;;10470755;28;20021;-57
2020/12/06 11:24:35;;;;;;;9.88;3.05;;;17.40;60.00;;;;;;10494726;28;20064;-57
2020/12/06 11:29:36;;;;;;;12.63;4.13;;;17.40;60.00;;;;;;10488265;28;20025;-57
2020/12/06 11:34:37;;;;;;;5.60;3.03;;;17.40;60.10;;;;;;10472982;28;20088;-57
2020/12/06 11:39:37;;;;;;;6.47;3.05;;;17.30;60.20;;;;;;10490465;28;20116;-56
2020/12/06 11:44:38;;;;;;;6.90;3.40;;;17.30;60.30;;;;;;10461369;28;20092;-56
2020/12/06 11:49:39;;;;;;;5.78;3.17;;;17.30;60.10;;;;;;10477942;28;20033;-56
2020/12/06 11:54:39;;;;;;;4.70;2.80;;;17.40;59.90;;;;;;10477730;28;20056;-57
2020/12/06 11:59:40;;;;;;;6.18;3.10;;;17.50;59.70;;;;;;10490032;28;20040;-57
2020/12/06 12:04:41;;;;;;;4.20;2.67;;;17.40;59.60;;;;;;10485817;28;20067;-57
2020/12/06 12:09:41;;;;;;;6.40;2.53;;;17.50;59.40;;;;;;10476399;28;20545;-57
2020/12/06 12:14:42;;;;;;;3.83;2.67;;;17.50;59.30;;;;;;10460004;28;20057;-57
2020/12/06 12:19:43;;;;;;;4.72;2.80;;;17.50;59.50;;;;;;10482567;28;20059;-57
2020/12/06 12:24:43;;;;;;;4.15;2.67;;;17.50;59.40;;;;;;10489029;28;20029;-57
2020/12/06 12:29:44;;;;;;;4.63;2.67;;;17.50;59.50;;;;;;10476644;28;20048;-57
2020/12/06 12:34:45;;;;;;;5.60;3.25;;;17.50;59.30;;;;;;10463007;28;20432;-58
2020/12/06 12:39:45;;;;;;;10.73;3.42;;;17.40;59.40;;;;;;10468016;28;20098;-57
2020/12/06 12:44:46;;;;;;;9.15;3.90;;;17.50;60.20;;;;;;10465830;28;20555;-59
2020/12/06 12:49:47;;;;;;;8.40;3.40;;;17.40;60.60;;;;;;10455096;28;20090;-59
2020/12/06 12:54:48;;;;;;;8.10;3.10;;;17.40;60.60;;;;;;10461598;28;20029;-59
2020/12/06 12:59:48;;;;;;;7.63;2.85;;;17.40;61.10;;;;;;10431368;28;20029;-57
2020/12/06 13:04:49;;;;;;;7.95;3.05;;;17.40;61.20;;;;;;10447360;28;20155;-58
2020/12/06 13:09:50;;;;;;;7.78;3.30;;;17.20;61.50;;;;;;10456290;28;20052;-61
2020/12/06 13:14:53;;;;;;;11.45;3.78;;;17.20;61.70;;;;;;10460545;28;20511;-59
2020/12/06 13:19:54;;;;;;;5.78;2.38;;;17.20;61.50;;;;;;10468641;28;20032;-59
2020/12/06 13:24:55;;;;;;;15.90;3.92;;;17.20;61.20;;;;;;10490189;28;20072;-58
2020/12/06 13:29:56;;;;;;;16.85;3.92;;;17.10;61.10;;;;;;10480771;28;20041;-58
2020/12/06 13:34:56;;;;;;;19.15;4.70;;;17.20;60.80;;;;;;10455798;28;20025;-57
2020/12/06 13:39:57;;;;;;;9.65;3.33;;;17.30;60.80;;;;;;10467378;28;20124;-57
2020/12/06 13:44:58;;;;;;;10.48;4.18;;;17.30;60.50;;;;;;10462514;28;20033;-58
2020/12/06 13:49:58;;;;;;;10.35;4.07;;;17.20;60.70;;;;;;10462316;28;20061;-59
2020/12/06 13:54:59;;;;;;;9.05;3.95;;;17.20;61.20;;;;;;10464369;28;20049;-57
2020/12/06 14:00:00;;;;;;;9.40;3.55;;;17.20;61.90;;;;;;10471301;28;20057;-57
2020/12/06 14:05:00;;;;;;;14.02;4.65;;;17.20;62.50;;;;;;10471182;28;20103;-57
2020/12/06 14:10:01;;;;;;;13.23;4.47;;;17.20;62.90;;;;;;10467449;28;20457;-57
2020/12/06 14:15:02;;;;;;;13.43;4.45;;;17.10;63.30;;;;;;10452431;28;20477;-58
2020/12/06 14:20:03;;;;;;;7.55;3.67;;;17.20;63.40;;;;;;10463150;28;20033;-58
2020/12/06 14:25:04;;;;;;;13.73;4.80;;;17.10;62.70;;;;;;10469390;28;20103;-59
2020/12/06 14:30:05;;;;;;;11.80;5.45;;;17.10;61.90;;;;;;10474147;28;20112;-58
2020/12/06 14:35:05;;;;;;;12.50;5.13;;;17.10;61.10;;;;;;10478196;28;20032;-58
2020/12/06 14:40:06;;;;;;;10.82;5.97;;;17.20;60.30;;;;;;10478889;28;20124;-58
2020/12/06 14:45:07;;;;;;;11.80;6.15;;;17.40;59.40;;;;;;10461955;28;20473;-60
2020/12/06 14:50:08;;;;;;;8.80;4.65;;;17.50;58.80;;;;;;10474393;28;20031;-61
2020/12/06 14:55:08;;;;;;;11.55;4.93;;;17.60;58.80;;;;;;10461921;28;20119;-59
2020/12/06 15:00:09;;;;;;;11.35;4.15;;;17.80;58.70;;;;;;10463397;28;20094;-59
2020/12/06 15:05:10;;;;;;;14.23;5.45;;;17.80;58.70;;;;;;10464084;28;20108;-59
2020/12/06 15:10:10;;;;;;;11.57;4.10;;;17.90;58.50;;;;;;10476716;28;20103;-58
2020/12/06 15:15:11;;;;;;;9.52;4.63;;;17.80;58.20;;;;;;10463892;28;20044;-59
2020/12/06 15:20:12;;;;;;;10.50;5.63;;;17.70;58.30;;;;;;10472169;28;20028;-58
2020/12/06 15:25:13;;;;;;;11.98;5.22;;;17.80;58.10;;;;;;10485323;28;20033;-57
2020/12/06 15:30:13;;;;;;;14.05;6.13;;;17.80;57.90;;;;;;10459136;28;20032;-58
2020/12/06 15:35:14;;;;;;;9.32;5.25;;;17.80;57.70;;;;;;10453279;28;20535;-57
2020/12/06 15:40:15;;;;;;;9.98;5.35;;;17.80;56.90;;;;;;10453483;28;20136;-58
2020/12/06 15:45:15;;;;;;;10.15;5.70;;;17.60;57.00;;;;;;10444804;28;20073;-58
2020/12/06 15:50:16;;;;;;;10.02;5.93;;;17.60;56.70;;;;;;10458457;28;20087;-58
2020/12/06 15:55:18;;;;;;;7.47;5.70;;;17.80;55.90;;;;;;10436119;28;20464;-56
2020/12/06 16:00:19;;;;;;;8.90;5.35;;;18.00;55.40;;;;;;10467843;28;20033;-57
2020/12/06 16:05:19;;;;;;;6.57;5.05;;;18.00;54.90;;;;;;10485508;28;20031;-57
2020/12/06 16:10:23;;;;;;;7.90;5.70;;;18.10;54.60;;;;;;10467034;28;20051;-57
2020/12/06 16:15:24;;;;;;;7.53;5.20;;;18.20;54.30;;;;;;10431190;28;20095;-58
2020/12/06 16:20:25;;;;;;;10.15;6.07;;;18.20;54.10;;;;;;10452950;28;20174;-57
2020/12/06 16:25:25;;;;;;;9.10;5.85;;;18.20;53.70;;;;;;10475687;28;20048;-58
2020/12/06 16:30:26;;;;;;;8.85;5.80;;;18.20;53.40;;;;;;10480745;28;20477;-59
2020/12/06 16:35:27;;;;;;;7.93;5.68;;;18.30;53.40;;;;;;10471207;28;20497;-58
2020/12/06 16:40:27;;;;;;;5.55;4.18;;;18.40;53.50;;;;;;10463702;28;20068;-58
2020/12/06 16:45:28;;;;;;;9.23;6.05;;;18.50;53.80;;;;;;10463135;28;20025;-57
2020/12/06 16:50:29;;;;;;;6.78;5.35;;;18.40;53.70;;;;;;10452058;28;20082;-57
2020/12/06 16:55:29;;;;;;;6.30;4.57;;;18.30;53.40;;;;;;10499910;28;20025;-56
2020/12/06 17:00:31;;;;;;;7.40;4.93;;;18.30;53.30;;;;;;10476429;28;20384;-57
2020/12/06 17:05:32;;;;;;;5.07;4.40;;;18.40;52.90;;;;;;10454453;28;20025;-58
2020/12/06 17:10:33;;;;;;;8.10;5.55;;;18.40;53.70;;;;;;10452338;28;20116;-58
2020/12/06 17:15:34;;;;;;;5.90;4.85;;;18.40;54.10;;;;;;10457975;28;20033;-57
2020/12/06 17:20:34;;;;;;;9.10;4.90;;;18.40;54.10;;;;;;10472540;28;20029;-59
2020/12/06 17:25:35;;;;;;;11.50;5.15;;;18.40;54.50;;;;;;10461615;28;20459;-59
2020/12/06 17:30:36;;;;;;;10.75;5.10;;;18.40;54.90;;;;;;10434025;28;20033;-57
2020/12/06 17:35:37;;;;;;;14.20;6.95;;;18.50;54.80;;;;;;10473264;28;20094;-58
2020/12/06 17:40:37;;;;;;;16.20;8.57;;;18.60;55.00;;;;;;10468556;28;20047;-55
2020/12/06 17:45:38;;;;;;;13.75;6.82;;;18.60;57.80;;;;;;10464051;28;20496;-56
2020/12/06 17:50:39;;;;;;;9.55;6.57;;;18.70;58.90;;;;;;10455572;28;20393;-57
2020/12/06 17:55:40;;;;;;;10.63;5.53;;;18.80;59.90;;;;;;10469158;28;20100;-58
2020/12/06 18:00:40;;;;;;;8.35;5.18;;;18.90;59.50;;;;;;10471253;28;20149;-56
2020/12/06 18:05:41;;;;;;;10.13;5.00;;;18.90;59.40;;;;;;10474279;28;20154;-58
2020/12/06 18:10:42;;;;;;;13.55;5.78;;;19.10;60.00;;;;;;10468785;28;20057;-58
2020/12/06 18:15:44;;;;;;;7.75;4.55;;;19.10;59.40;;;;;;10471694;28;20385;-58
2020/12/06 18:20:45;;;;;;;11.60;4.72;;;19.20;58.20;;;;;;10457933;28;20102;-56
2020/12/06 18:25:46;;;;;;;9.30;5.10;;;19.10;58.30;;;;;;10463179;28;20380;-57
2020/12/06 18:30:46;;;;;;;8.43;4.82;;;18.90;58.80;;;;;;10453570;28;20482;-56
2020/12/06 18:35:47;;;;;;;9.27;4.90;;;18.80;59.30;;;;;;10456153;28;20035;-56
2020/12/06 18:40:48;;;;;;;7.50;4.93;;;18.70;59.70;;;;;;10473148;28;20438;-57
2020/12/06 18:45:48;;;;;;;7.85;4.35;;;18.70;60.10;;;;;;10480555;28;20731;-57
2020/12/06 18:50:49;;;;;;;12.43;4.68;;;18.60;60.10;;;;;;10457793;28;20100;-57
2020/12/06 18:55:50;;;;;;;8.30;4.78;;;18.70;59.90;;;;;;10450618;28;20489;-59
2020/12/06 19:00:50;;;;;;;6.60;4.18;;;18.60;60.50;;;;;;10429623;28;20030;-58
2020/12/06 19:05:51;;;;;;;7.97;4.03;;;18.60;60.50;;;;;;10450198;28;20121;-59
2020/12/06 19:10:52;;;;;;;7.40;4.40;;;18.70;60.30;;;;;;10438644;28;20029;-59
2020/12/06 19:15:52;;;;;;;8.55;4.18;;;18.70;60.40;;;;;;10436478;28;20564;-58
2020/12/06 19:20:56;;;;;;;10.10;5.25;;;18.60;60.80;;;;;;10439720;28;20488;-60
2020/12/06 19:25:58;;;;;;;7.90;4.28;;;18.50;60.70;;;;;;10463769;28;20057;-60
2020/12/06 19:30:58;;;;;;;8.10;3.85;;;18.50;60.80;;;;;;10450344;28;20029;-60
2020/12/06 19:35:59;;;;;;;9.52;3.80;;;18.40;61.40;;;;;;10450073;28;20045;-60
2020/12/06 19:41:00;;;;;;;7.65;3.88;;;18.40;61.40;;;;;;10453060;28;20075;-60
2020/12/06 19:46:01;;;;;;;8.25;3.67;;;18.50;61.40;;;;;;10439714;28;20025;-59
2020/12/06 19:51:01;;;;;;;7.75;3.88;;;18.40;61.30;;;;;;10429949;28;20035;-59
2020/12/06 19:56:02;;;;;;;5.40;4.18;;;18.40;61.80;;;;;;10432368;28;20036;-59
2020/12/06 20:01:03;;;;;;;6.75;3.30;;;18.40;61.60;;;;;;10428242;28;20035;-58
2020/12/06 20:06:04;;;;;;;6.22;3.33;;;18.40;61.50;;;;;;10471846;28;20121;-59
2020/12/06 20:11:09;;;;;;;6.47;3.75;;;18.30;61.90;;;;;;10470400;28;20028;-59
2020/12/06 20:16:10;;;;;;;6.63;3.55;;;18.20;62.40;;;;;;10461505;28;20533;-58
2020/12/06 20:21:15;;;;;;;5.82;3.33;;;18.00;62.80;;;;;;10467061;28;20029;-59
2020/12/06 20:26:15;;;;;;;6.35;3.33;;;17.90;63.40;;;;;;10463958;28;20044;-59
2020/12/06 20:31:16;;;;;;;4.50;3.28;;;17.70;64.10;;;;;;10435260;28;20030;-58
2020/12/06 20:36:17;;;;;;;7.82;3.30;;;17.60;64.10;;;;;;10425669;28;20064;-59
2020/12/06 20:41:17;;;;;;;5.97;3.50;;;17.40;64.50;;;;;;10442536;28;20123;-58
2020/12/06 20:46:22;;;;;;;5.55;3.03;;;17.30;64.90;;;;;;10456512;28;20461;-58
2020/12/06 20:51:24;;;;;;;5.55;3.63;;;17.20;65.40;;;;;;10451836;28;20512;-58
2020/12/06 20:56:25;;;;;;;5.95;3.67;;;17.00;65.60;;;;;;10477708;28;20028;-58
2020/12/06 21:01:26;;;;;;;5.47;3.97;;;16.90;65.70;;;;;;10470627;28;20463;-58
2020/12/06 21:06:26;;;;;;;6.90;4.15;;;16.80;65.90;;;;;;10475889;28;20016;-58
2020/12/06 21:11:29;;;;;;;6.72;3.40;;;16.80;66.00;;;;;;10467691;28;20032;-58
2020/12/06 21:16:29;;;;;;;8.48;3.70;;;16.70;66.00;;;;;;10470071;28;20032;-58
2020/12/06 21:21:30;;;;;;;5.63;3.78;;;16.60;66.10;;;;;;10477742;28;20044;-58
2020/12/06 21:26:31;;;;;;;6.40;4.15;;;16.60;66.20;;;;;;10473530;28;20074;-58
2020/12/06 21:31:31;;;;;;;9.85;4.30;;;16.50;66.30;;;;;;10476878;28;20120;-58
2020/12/06 21:36:34;;;;;;;6.10;4.15;;;16.50;66.40;;;;;;10475681;28;20116;-57
2020/12/06 21:41:35;;;;;;;6.55;3.97;;;16.40;66.50;;;;;;10471315;28;20084;-58
2020/12/06 21:46:36;;;;;;;5.07;3.78;;;16.30;66.50;;;;;;10461757;28;20032;-58
2020/12/06 21:51:36;;;;;;;5.57;4.30;;;16.30;66.50;;;;;;10452736;28;20465;-58
2020/12/06 21:56:42;;;;;;;7.63;4.10;;;16.30;66.60;;;;;;10488015;28;20115;-57
2020/12/06 22:01:43;;;;;;;5.38;4.28;;;16.20;66.60;;;;;;10479917;28;20388;-57
2020/12/06 22:06:47;;;;;;;6.78;4.63;;;16.20;66.60;;;;;;10480666;28;20032;-58
2020/12/06 22:11:48;;;;;;;7.88;5.10;;;16.20;66.60;;;;;;10475678;28;20025;-57
2020/12/06 22:16:48;;;;;;;6.50;4.18;;;16.10;66.70;;;;;;10466107;28;20108;-57
2020/12/06 22:21:49;;;;;;;6.80;4.25;;;16.00;66.70;;;;;;10485446;28;20116;-58
2020/12/06 22:26:51;;;;;;;6.03;4.35;;;16.00;66.70;;;;;;10464507;28;20452;-58
2020/12/06 22:31:53;;;;;;;6.70;4.68;;;16.00;66.80;;;;;;10483906;28;20056;-58
2020/12/06 22:36:56;;;;;;;5.40;4.38;;;16.00;66.80;;;;;;10479348;28;20497;-58
2020/12/06 22:41:59;;;;;;;6.35;4.10;;;15.90;66.80;;;;;;10473263;28;20457;-59
2020/12/06 22:47:00;;;;;;;6.22;4.57;;;15.90;66.90;;;;;;10464722;28;20029;-57
2020/12/06 22:52:00;;;;;;;6.43;4.82;;;15.90;66.90;;;;;;10473507;28;20127;-58
2020/12/06 22:57:01;;;;;;;8.02;5.50;;;15.80;66.90;;;;;;10495531;28;20038;-57
2020/12/06 23:02:03;;;;;;;6.35;4.70;;;15.80;67.00;;;;;;10489977;28;20032;-58
2020/12/06 23:07:04;;;;;;;8.43;5.40;;;15.80;67.00;;;;;;10499723;28;20497;-58
2020/12/06 23:12:05;;;;;;;7.07;5.65;;;15.80;67.00;;;;;;10474493;28;20036;-58
2020/12/06 23:17:05;;;;;;;7.50;6.00;;;15.70;67.00;;;;;;10465445;28;20036;-58
2020/12/06 23:22:06;;;;;;;5.95;4.68;;;15.70;66.90;;;;;;10486273;28;20399;-58
2020/12/06 23:27:07;;;;;;;5.97;4.75;;;15.70;67.00;;;;;;10480163;28;20029;-58
2020/12/06 23:32:09;;;;;;;7.22;5.28;;;15.70;67.00;;;;;;10464582;28;20043;-57
2020/12/06 23:37:10;;;;;;;6.50;4.93;;;15.60;67.00;;;;;;10473554;28;20051;-57
2020/12/06 23:42:10;;;;;;;5.65;4.25;;;15.60;67.20;;;;;;10468008;28;20380;-58
2020/12/06 23:47:11;;;;;;;7.57;5.13;;;15.60;66.90;;;;;;10463988;28;20514;-58
2020/12/06 23:52:12;;;;;;;8.90;5.07;;;15.60;67.00;;;;;;10458970;28;20037;-58
2020/12/06 23:57:16;;;;;;;6.38;5.07;;;15.50;66.90;;;;;;10496487;28;20032;-57
